sensor_id;sensor_type;location;lat;lon;timestamp;P1;durP1;ratioP1;P2;durP2;ratioP2
4650;SDS011;2338;49.602;8.722;2023-12-20T00:01:40;13.05;;;10.32;;
4650;SDS011;2338;49.602;8.722;2023-12-20T00:04:27;14.32;;;11.20;;
4650;SDS011;2338;49.602;8.722;2023-12-20T00:07:13;13.73;;;11.40;;
4650;SDS011;2338;49.602;8.722;2023-12-20T00:09:58;17.40;;;11.40;;
4650;SDS011;2338;49.602;8.722;2023-12-20T00:12:44;13.38;;;10.82;;
4650;SDS011;2338;49.602;8.722;2023-12-20T00:15:30;16.33;;;11.30;;
4650;SDS011;2338;49.602;8.722;2023-12-20T00:18:15;14.00;;;11.40;;
4650;SDS011;2338;49.602;8.722;2023-12-20T00:21:03;11.90;;;10.18;;
4650;SDS011;2338;49.602;8.722;2023-12-20T00:23:48;12.57;;;10.67;;
4650;SDS011;2338;49.602;8.722;2023-12-20T00:26:34;13.07;;;10.50;;
4650;SDS011;2338;49.602;8.722;2023-12-20T00:29:20;12.13;;;9.83;;
4650;SDS011;2338;49.602;8.722;2023-12-20T00:32:06;11.35;;;9.10;;
4650;SDS011;2338;49.602;8.722;2023-12-20T00:34:51;12.65;;;10.02;;
4650;SDS011;2338;49.602;8.722;2023-12-20T00:37:38;14.40;;;10.87;;
4650;SDS011;2338;49.602;8.722;2023-12-20T00:40:24;11.80;;;9.00;;
4650;SDS011;2338;49.602;8.722;2023-12-20T00:43:10;11.48;;;8.90;;
4650;SDS011;2338;49.602;8.722;2023-12-20T00:45:57;12.32;;;9.55;;
4650;SDS011;2338;49.602;8.722;2023-12-20T00:48:43;9.77;;;8.77;;
4650;SDS011;2338;49.602;8.722;2023-12-20T00:51:29;9.50;;;8.00;;
4650;SDS011;2338;49.602;8.722;2023-12-20T00:54:16;11.00;;;8.77;;
4650;SDS011;2338;49.602;8.722;2023-12-20T00:57:01;12.80;;;9.27;;
4650;SDS011;2338;49.602;8.722;2023-12-20T00:59:47;14.13;;;8.80;;
4650;SDS011;2338;49.602;8.722;2023-12-20T01:02:33;10.90;;;8.43;;
4650;SDS011;2338;49.602;8.722;2023-12-20T01:05:19;8.60;;;7.63;;
4650;SDS011;2338;49.602;8.722;2023-12-20T01:08:06;10.48;;;7.75;;
4650;SDS011;2338;49.602;8.722;2023-12-20T01:10:53;9.55;;;7.68;;
4650;SDS011;2338;49.602;8.722;2023-12-20T01:13:39;8.65;;;7.20;;
4650;SDS011;2338;49.602;8.722;2023-12-20T01:16:25;8.70;;;7.15;;
4650;SDS011;2338;49.602;8.722;2023-12-20T01:19:10;8.77;;;7.23;;
4650;SDS011;2338;49.602;8.722;2023-12-20T01:21:56;8.98;;;6.78;;
4650;SDS011;2338;49.602;8.722;2023-12-20T01:24:42;11.93;;;6.30;;
4650;SDS011;2338;49.602;8.722;2023-12-20T01:27:29;8.05;;;6.80;;
4650;SDS011;2338;49.602;8.722;2023-12-20T01:30:15;7.05;;;5.65;;
4650;SDS011;2338;49.602;8.722;2023-12-20T01:33:01;8.17;;;5.93;;
4650;SDS011;2338;49.602;8.722;2023-12-20T01:35:47;6.38;;;5.78;;
4650;SDS011;2338;49.602;8.722;2023-12-20T01:38:33;7.18;;;5.50;;
4650;SDS011;2338;49.602;8.722;2023-12-20T01:41:18;7.43;;;4.70;;
4650;SDS011;2338;49.602;8.722;2023-12-20T01:44:05;8.63;;;5.72;;
4650;SDS011;2338;49.602;8.722;2023-12-20T01:46:51;6.07;;;5.35;;
4650;SDS011;2338;49.602;8.722;2023-12-20T01:49:36;5.97;;;5.07;;
4650;SDS011;2338;49.602;8.722;2023-12-20T01:52:22;4.95;;;4.45;;
4650;SDS011;2338;49.602;8.722;2023-12-20T01:55:08;5.88;;;5.03;;
4650;SDS011;2338;49.602;8.722;2023-12-20T01:57:56;7.50;;;5.80;;
4650;SDS011;2338;49.602;8.722;2023-12-20T02:00:44;5.80;;;5.00;;
4650;SDS011;2338;49.602;8.722;2023-12-20T02:03:30;5.50;;;4.90;;
4650;SDS011;2338;49.602;8.722;2023-12-20T02:06:16;6.53;;;5.03;;
4650;SDS011;2338;49.602;8.722;2023-12-20T02:09:03;6.23;;;5.60;;
4650;SDS011;2338;49.602;8.722;2023-12-20T02:11:49;7.28;;;4.90;;
4650;SDS011;2338;49.602;8.722;2023-12-20T02:14:34;7.93;;;5.88;;
4650;SDS011;2338;49.602;8.722;2023-12-20T02:17:22;5.45;;;4.63;;
4650;SDS011;2338;49.602;8.722;2023-12-20T02:20:08;6.60;;;4.30;;
4650;SDS011;2338;49.602;8.722;2023-12-20T02:22:55;7.30;;;4.47;;
4650;SDS011;2338;49.602;8.722;2023-12-20T02:25:41;5.78;;;5.10;;
4650;SDS011;2338;49.602;8.722;2023-12-20T02:28:27;10.57;;;5.57;;
4650;SDS011;2338;49.602;8.722;2023-12-20T02:31:13;6.23;;;4.70;;
4650;SDS011;2338;49.602;8.722;2023-12-20T02:33:58;5.45;;;4.55;;
4650;SDS011;2338;49.602;8.722;2023-12-20T02:36:44;4.28;;;3.85;;
4650;SDS011;2338;49.602;8.722;2023-12-20T02:39:31;6.18;;;4.57;;
4650;SDS011;2338;49.602;8.722;2023-12-20T02:42:17;4.47;;;4.05;;
4650;SDS011;2338;49.602;8.722;2023-12-20T02:45:03;5.50;;;4.35;;
4650;SDS011;2338;49.602;8.722;2023-12-20T02:47:50;6.80;;;4.28;;
4650;SDS011;2338;49.602;8.722;2023-12-20T02:50:35;5.73;;;4.60;;
4650;SDS011;2338;49.602;8.722;2023-12-20T02:53:21;5.57;;;4.18;;
4650;SDS011;2338;49.602;8.722;2023-12-20T02:56:08;5.97;;;4.55;;
4650;SDS011;2338;49.602;8.722;2023-12-20T02:58:54;6.63;;;4.55;;
4650;SDS011;2338;49.602;8.722;2023-12-20T03:01:41;10.55;;;4.78;;
4650;SDS011;2338;49.602;8.722;2023-12-20T03:04:28;4.90;;;4.40;;
4650;SDS011;2338;49.602;8.722;2023-12-20T03:07:14;4.60;;;4.10;;
4650;SDS011;2338;49.602;8.722;2023-12-20T03:09:59;7.03;;;4.60;;
4650;SDS011;2338;49.602;8.722;2023-12-20T03:12:46;5.35;;;4.78;;
4650;SDS011;2338;49.602;8.722;2023-12-20T03:15:32;5.57;;;4.70;;
4650;SDS011;2338;49.602;8.722;2023-12-20T03:18:17;5.05;;;4.45;;
4650;SDS011;2338;49.602;8.722;2023-12-20T03:21:03;6.88;;;4.65;;
4650;SDS011;2338;49.602;8.722;2023-12-20T03:23:49;5.72;;;4.07;;
4650;SDS011;2338;49.602;8.722;2023-12-20T03:26:35;5.20;;;3.95;;
4650;SDS011;2338;49.602;8.722;2023-12-20T03:29:22;4.75;;;4.15;;
4650;SDS011;2338;49.602;8.722;2023-12-20T03:32:07;4.93;;;4.22;;
4650;SDS011;2338;49.602;8.722;2023-12-20T03:34:53;6.10;;;4.63;;
4650;SDS011;2338;49.602;8.722;2023-12-20T03:37:39;8.75;;;5.35;;
4650;SDS011;2338;49.602;8.722;2023-12-20T03:40:24;5.95;;;4.53;;
4650;SDS011;2338;49.602;8.722;2023-12-20T03:43:10;7.40;;;5.27;;
4650;SDS011;2338;49.602;8.722;2023-12-20T03:45:57;10.68;;;6.25;;
4650;SDS011;2338;49.602;8.722;2023-12-20T03:48:43;9.73;;;6.13;;
4650;SDS011;2338;49.602;8.722;2023-12-20T03:51:29;7.78;;;5.30;;
4650;SDS011;2338;49.602;8.722;2023-12-20T03:54:14;6.20;;;4.50;;
4650;SDS011;2338;49.602;8.722;2023-12-20T03:57:00;7.20;;;5.03;;
4650;SDS011;2338;49.602;8.722;2023-12-20T03:59:46;8.30;;;4.90;;
4650;SDS011;2338;49.602;8.722;2023-12-20T04:02:33;5.53;;;4.47;;
4650;SDS011;2338;49.602;8.722;2023-12-20T04:05:18;5.10;;;3.80;;
4650;SDS011;2338;49.602;8.722;2023-12-20T04:08:04;5.57;;;4.20;;
4650;SDS011;2338;49.602;8.722;2023-12-20T04:10:50;6.43;;;5.00;;
4650;SDS011;2338;49.602;8.722;2023-12-20T04:13:36;5.00;;;4.50;;
4650;SDS011;2338;49.602;8.722;2023-12-20T04:16:21;5.73;;;4.50;;
4650;SDS011;2338;49.602;8.722;2023-12-20T04:19:08;5.50;;;4.20;;
4650;SDS011;2338;49.602;8.722;2023-12-20T04:21:54;4.40;;;3.80;;
4650;SDS011;2338;49.602;8.722;2023-12-20T04:24:39;5.37;;;3.30;;
4650;SDS011;2338;49.602;8.722;2023-12-20T04:27:25;10.63;;;4.28;;
4650;SDS011;2338;49.602;8.722;2023-12-20T04:30:11;4.40;;;3.70;;
4650;SDS011;2338;49.602;8.722;2023-12-20T04:32:57;4.15;;;3.60;;
4650;SDS011;2338;49.602;8.722;2023-12-20T04:35:44;5.53;;;3.85;;
4650;SDS011;2338;49.602;8.722;2023-12-20T04:38:30;4.63;;;3.60;;
4650;SDS011;2338;49.602;8.722;2023-12-20T04:41:16;6.45;;;4.13;;
4650;SDS011;2338;49.602;8.722;2023-12-20T04:44:02;4.30;;;3.43;;
4650;SDS011;2338;49.602;8.722;2023-12-20T04:46:48;4.43;;;3.95;;
4650;SDS011;2338;49.602;8.722;2023-12-20T04:49:34;5.40;;;4.05;;
4650;SDS011;2338;49.602;8.722;2023-12-20T04:52:20;4.73;;;3.70;;
4650;SDS011;2338;49.602;8.722;2023-12-20T04:55:06;5.72;;;4.70;;
4650;SDS011;2338;49.602;8.722;2023-12-20T04:57:52;6.63;;;4.93;;
4650;SDS011;2338;49.602;8.722;2023-12-20T05:00:38;5.17;;;4.40;;
4650;SDS011;2338;49.602;8.722;2023-12-20T05:03:24;6.43;;;5.25;;
4650;SDS011;2338;49.602;8.722;2023-12-20T05:06:09;7.10;;;4.97;;
4650;SDS011;2338;49.602;8.722;2023-12-20T05:08:56;6.23;;;5.30;;
4650;SDS011;2338;49.602;8.722;2023-12-20T05:11:42;6.37;;;5.77;;
4650;SDS011;2338;49.602;8.722;2023-12-20T05:14:27;6.77;;;5.43;;
4650;SDS011;2338;49.602;8.722;2023-12-20T05:17:13;5.38;;;4.88;;
4650;SDS011;2338;49.602;8.722;2023-12-20T05:19:59;7.57;;;5.33;;
4650;SDS011;2338;49.602;8.722;2023-12-20T05:22:44;7.47;;;6.47;;
4650;SDS011;2338;49.602;8.722;2023-12-20T05:25:32;6.93;;;5.40;;
4650;SDS011;2338;49.602;8.722;2023-12-20T05:28:17;9.93;;;6.82;;
4650;SDS011;2338;49.602;8.722;2023-12-20T05:31:03;6.50;;;5.70;;
4650;SDS011;2338;49.602;8.722;2023-12-20T05:33:48;6.88;;;6.03;;
4650;SDS011;2338;49.602;8.722;2023-12-20T05:36:34;7.43;;;6.35;;
4650;SDS011;2338;49.602;8.722;2023-12-20T05:39:20;8.97;;;8.07;;
4650;SDS011;2338;49.602;8.722;2023-12-20T05:42:08;8.00;;;7.20;;
4650;SDS011;2338;49.602;8.722;2023-12-20T05:44:53;11.80;;;7.20;;
4650;SDS011;2338;49.602;8.722;2023-12-20T05:47:39;8.87;;;7.57;;
4650;SDS011;2338;49.602;8.722;2023-12-20T05:50:24;8.50;;;6.30;;
4650;SDS011;2338;49.602;8.722;2023-12-20T05:53:10;9.10;;;6.67;;
4650;SDS011;2338;49.602;8.722;2023-12-20T05:55:56;7.90;;;7.07;;
4650;SDS011;2338;49.602;8.722;2023-12-20T05:58:43;9.70;;;6.77;;
4650;SDS011;2338;49.602;8.722;2023-12-20T06:01:28;8.18;;;7.35;;
4650;SDS011;2338;49.602;8.722;2023-12-20T06:04:14;7.93;;;7.18;;
4650;SDS011;2338;49.602;8.722;2023-12-20T06:06:59;10.18;;;8.00;;
4650;SDS011;2338;49.602;8.722;2023-12-20T06:09:45;8.65;;;7.32;;
4650;SDS011;2338;49.602;8.722;2023-12-20T06:12:31;13.37;;;7.40;;
4650;SDS011;2338;49.602;8.722;2023-12-20T06:15:21;15.88;;;10.23;;
4650;SDS011;2338;49.602;8.722;2023-12-20T06:18:07;10.27;;;8.30;;
4650;SDS011;2338;49.602;8.722;2023-12-20T06:20:52;10.80;;;8.73;;
4650;SDS011;2338;49.602;8.722;2023-12-20T06:23:38;30.85;;;20.35;;
4650;SDS011;2338;49.602;8.722;2023-12-20T06:26:24;20.20;;;13.83;;
4650;SDS011;2338;49.602;8.722;2023-12-20T06:29:09;13.23;;;8.70;;
4650;SDS011;2338;49.602;8.722;2023-12-20T06:31:56;9.70;;;7.57;;
4650;SDS011;2338;49.602;8.722;2023-12-20T06:34:42;14.67;;;10.73;;
4650;SDS011;2338;49.602;8.722;2023-12-20T06:37:28;9.05;;;8.13;;
4650;SDS011;2338;49.602;8.722;2023-12-20T06:40:13;11.98;;;8.30;;
4650;SDS011;2338;49.602;8.722;2023-12-20T06:42:59;9.90;;;7.97;;
4650;SDS011;2338;49.602;8.722;2023-12-20T06:45:45;12.37;;;10.13;;
4650;SDS011;2338;49.602;8.722;2023-12-20T06:48:32;12.30;;;9.30;;
4650;SDS011;2338;49.602;8.722;2023-12-20T06:51:18;13.70;;;10.83;;
4650;SDS011;2338;49.602;8.722;2023-12-20T06:54:04;15.27;;;9.80;;
4650;SDS011;2338;49.602;8.722;2023-12-20T06:56:50;9.98;;;8.82;;
4650;SDS011;2338;49.602;8.722;2023-12-20T06:59:38;9.30;;;8.30;;
4650;SDS011;2338;49.602;8.722;2023-12-20T07:02:24;10.40;;;7.60;;
4650;SDS011;2338;49.602;8.722;2023-12-20T07:05:14;9.00;;;7.80;;
4650;SDS011;2338;49.602;8.722;2023-12-20T07:08:03;9.10;;;7.95;;
4650;SDS011;2338;49.602;8.722;2023-12-20T07:10:50;10.88;;;8.18;;
4650;SDS011;2338;49.602;8.722;2023-12-20T07:13:35;9.60;;;8.55;;
4650;SDS011;2338;49.602;8.722;2023-12-20T07:16:21;9.80;;;7.10;;
4650;SDS011;2338;49.602;8.722;2023-12-20T07:19:07;9.52;;;7.18;;
4650;SDS011;2338;49.602;8.722;2023-12-20T07:21:54;9.23;;;7.40;;
4650;SDS011;2338;49.602;8.722;2023-12-20T07:24:40;9.15;;;7.03;;
4650;SDS011;2338;49.602;8.722;2023-12-20T07:27:25;7.47;;;6.50;;
4650;SDS011;2338;49.602;8.722;2023-12-20T07:30:11;7.70;;;6.78;;
4650;SDS011;2338;49.602;8.722;2023-12-20T07:32:57;7.15;;;6.45;;
4650;SDS011;2338;49.602;8.722;2023-12-20T07:35:43;8.70;;;7.05;;
4650;SDS011;2338;49.602;8.722;2023-12-20T07:38:30;7.68;;;6.80;;
4650;SDS011;2338;49.602;8.722;2023-12-20T07:41:15;8.23;;;6.93;;
4650;SDS011;2338;49.602;8.722;2023-12-20T07:44:03;8.18;;;6.45;;
4650;SDS011;2338;49.602;8.722;2023-12-20T07:46:50;8.35;;;6.75;;
4650;SDS011;2338;49.602;8.722;2023-12-20T07:49:36;11.35;;;7.28;;
4650;SDS011;2338;49.602;8.722;2023-12-20T07:52:21;8.82;;;6.80;;
4650;SDS011;2338;49.602;8.722;2023-12-20T07:55:09;9.63;;;7.40;;
4650;SDS011;2338;49.602;8.722;2023-12-20T07:57:55;8.13;;;6.53;;
4650;SDS011;2338;49.602;8.722;2023-12-20T08:00:40;7.45;;;6.30;;
4650;SDS011;2338;49.602;8.722;2023-12-20T08:03:26;8.25;;;6.22;;
4650;SDS011;2338;49.602;8.722;2023-12-20T08:06:12;8.10;;;6.65;;
4650;SDS011;2338;49.602;8.722;2023-12-20T08:08:57;15.15;;;7.32;;
4650;SDS011;2338;49.602;8.722;2023-12-20T08:11:45;9.90;;;7.10;;
4650;SDS011;2338;49.602;8.722;2023-12-20T08:14:31;13.43;;;6.68;;
4650;SDS011;2338;49.602;8.722;2023-12-20T08:17:17;7.85;;;6.40;;
4650;SDS011;2338;49.602;8.722;2023-12-20T08:20:03;11.15;;;6.63;;
4650;SDS011;2338;49.602;8.722;2023-12-20T08:22:49;14.95;;;6.85;;
4650;SDS011;2338;49.602;8.722;2023-12-20T08:25:35;11.35;;;6.00;;
4650;SDS011;2338;49.602;8.722;2023-12-20T08:28:21;8.38;;;6.07;;
4650;SDS011;2338;49.602;8.722;2023-12-20T08:31:13;9.02;;;6.53;;
4650;SDS011;2338;49.602;8.722;2023-12-20T08:33:58;10.52;;;7.40;;
4650;SDS011;2338;49.602;8.722;2023-12-20T08:36:44;6.63;;;5.93;;
4650;SDS011;2338;49.602;8.722;2023-12-20T08:39:30;8.97;;;6.80;;
4650;SDS011;2338;49.602;8.722;2023-12-20T08:42:17;8.48;;;5.32;;
4650;SDS011;2338;49.602;8.722;2023-12-20T08:45:05;9.70;;;6.05;;
4650;SDS011;2338;49.602;8.722;2023-12-20T08:47:50;9.90;;;6.35;;
4650;SDS011;2338;49.602;8.722;2023-12-20T08:50:36;10.10;;;5.85;;
4650;SDS011;2338;49.602;8.722;2023-12-20T08:53:22;9.90;;;5.10;;
4650;SDS011;2338;49.602;8.722;2023-12-20T08:56:09;6.57;;;5.05;;
4650;SDS011;2338;49.602;8.722;2023-12-20T08:58:54;8.18;;;5.40;;
4650;SDS011;2338;49.602;8.722;2023-12-20T09:01:41;12.13;;;5.28;;
4650;SDS011;2338;49.602;8.722;2023-12-20T09:04:27;9.52;;;5.32;;
4650;SDS011;2338;49.602;8.722;2023-12-20T09:07:22;12.68;;;6.38;;
4650;SDS011;2338;49.602;8.722;2023-12-20T09:10:08;8.85;;;5.93;;
4650;SDS011;2338;49.602;8.722;2023-12-20T09:12:53;16.73;;;6.10;;
4650;SDS011;2338;49.602;8.722;2023-12-20T09:15:40;10.18;;;6.22;;
4650;SDS011;2338;49.602;8.722;2023-12-20T09:18:27;8.60;;;5.97;;
4650;SDS011;2338;49.602;8.722;2023-12-20T09:21:13;10.98;;;4.60;;
4650;SDS011;2338;49.602;8.722;2023-12-20T09:23:58;9.07;;;5.17;;
4650;SDS011;2338;49.602;8.722;2023-12-20T09:26:44;10.60;;;4.57;;
4650;SDS011;2338;49.602;8.722;2023-12-20T09:29:29;11.13;;;4.80;;
4650;SDS011;2338;49.602;8.722;2023-12-20T09:32:15;12.47;;;7.40;;
4650;SDS011;2338;49.602;8.722;2023-12-20T09:35:02;11.60;;;4.83;;
4650;SDS011;2338;49.602;8.722;2023-12-20T09:37:49;6.05;;;4.82;;
4650;SDS011;2338;49.602;8.722;2023-12-20T09:40:35;10.33;;;4.20;;
4650;SDS011;2338;49.602;8.722;2023-12-20T09:43:25;6.00;;;4.10;;
4650;SDS011;2338;49.602;8.722;2023-12-20T09:46:13;10.00;;;4.05;;
4650;SDS011;2338;49.602;8.722;2023-12-20T09:49:04;7.63;;;4.43;;
4650;SDS011;2338;49.602;8.722;2023-12-20T09:51:54;6.30;;;4.00;;
4650;SDS011;2338;49.602;8.722;2023-12-20T09:54:40;11.70;;;4.40;;
4650;SDS011;2338;49.602;8.722;2023-12-20T09:57:27;9.87;;;4.27;;
4650;SDS011;2338;49.602;8.722;2023-12-20T10:00:13;6.75;;;4.05;;
4650;SDS011;2338;49.602;8.722;2023-12-20T10:03:01;13.03;;;4.37;;
4650;SDS011;2338;49.602;8.722;2023-12-20T10:05:46;11.83;;;4.90;;
4650;SDS011;2338;49.602;8.722;2023-12-20T10:08:35;7.93;;;4.60;;
4650;SDS011;2338;49.602;8.722;2023-12-20T10:11:21;8.47;;;4.47;;
4650;SDS011;2338;49.602;8.722;2023-12-20T10:14:06;6.80;;;4.20;;
4650;SDS011;2338;49.602;8.722;2023-12-20T10:16:52;12.07;;;4.40;;
4650;SDS011;2338;49.602;8.722;2023-12-20T10:19:39;9.93;;;4.20;;
4650;SDS011;2338;49.602;8.722;2023-12-20T10:22:24;7.10;;;3.70;;
4650;SDS011;2338;49.602;8.722;2023-12-20T10:25:13;9.33;;;3.73;;
4650;SDS011;2338;49.602;8.722;2023-12-20T10:28:08;11.13;;;4.18;;
4650;SDS011;2338;49.602;8.722;2023-12-20T10:30:55;9.18;;;4.28;;
4650;SDS011;2338;49.602;8.722;2023-12-20T10:33:41;8.67;;;4.00;;
4650;SDS011;2338;49.602;8.722;2023-12-20T10:36:27;7.07;;;4.18;;
4650;SDS011;2338;49.602;8.722;2023-12-20T10:39:14;8.65;;;4.07;;
4650;SDS011;2338;49.602;8.722;2023-12-20T10:42:02;17.00;;;6.70;;
4650;SDS011;2338;49.602;8.722;2023-12-20T10:44:49;13.07;;;4.40;;
4650;SDS011;2338;49.602;8.722;2023-12-20T10:47:35;8.20;;;4.53;;
4650;SDS011;2338;49.602;8.722;2023-12-20T10:50:22;7.60;;;4.07;;
4650;SDS011;2338;49.602;8.722;2023-12-20T10:53:08;9.23;;;4.37;;
4650;SDS011;2338;49.602;8.722;2023-12-20T10:55:55;12.35;;;4.15;;
4650;SDS011;2338;49.602;8.722;2023-12-20T10:58:46;10.53;;;3.67;;
4650;SDS011;2338;49.602;8.722;2023-12-20T11:01:33;12.63;;;4.00;;
4650;SDS011;2338;49.602;8.722;2023-12-20T11:04:22;13.47;;;3.47;;
4650;SDS011;2338;49.602;8.722;2023-12-20T11:07:17;8.20;;;3.50;;
4650;SDS011;2338;49.602;8.722;2023-12-20T11:10:10;12.88;;;4.57;;
4650;SDS011;2338;49.602;8.722;2023-12-20T11:13:03;10.37;;;3.27;;
4650;SDS011;2338;49.602;8.722;2023-12-20T11:15:55;5.80;;;3.00;;
4650;SDS011;2338;49.602;8.722;2023-12-20T11:18:41;12.87;;;4.57;;
4650;SDS011;2338;49.602;8.722;2023-12-20T11:21:26;8.67;;;3.07;;
4650;SDS011;2338;49.602;8.722;2023-12-20T11:24:15;18.23;;;3.97;;
4650;SDS011;2338;49.602;8.722;2023-12-20T11:27:00;9.80;;;3.60;;
4650;SDS011;2338;49.602;8.722;2023-12-20T11:29:49;11.13;;;3.13;;
4650;SDS011;2338;49.602;8.722;2023-12-20T11:32:38;12.10;;;3.37;;
4650;SDS011;2338;49.602;8.722;2023-12-20T11:35:26;24.08;;;3.30;;
4650;SDS011;2338;49.602;8.722;2023-12-20T11:38:12;14.37;;;3.43;;
4650;SDS011;2338;49.602;8.722;2023-12-20T11:40:59;16.90;;;4.37;;
4650;SDS011;2338;49.602;8.722;2023-12-20T11:43:47;6.60;;;2.70;;
4650;SDS011;2338;49.602;8.722;2023-12-20T11:46:33;8.83;;;3.00;;
4650;SDS011;2338;49.602;8.722;2023-12-20T11:49:22;6.57;;;2.50;;
4650;SDS011;2338;49.602;8.722;2023-12-20T11:52:08;6.70;;;2.83;;
4650;SDS011;2338;49.602;8.722;2023-12-20T11:54:56;5.55;;;2.75;;
4650;SDS011;2338;49.602;8.722;2023-12-20T11:57:42;6.35;;;3.15;;
4650;SDS011;2338;49.602;8.722;2023-12-20T12:00:28;10.17;;;2.67;;
4650;SDS011;2338;49.602;8.722;2023-12-20T12:03:14;7.77;;;2.70;;
4650;SDS011;2338;49.602;8.722;2023-12-20T12:06:01;9.57;;;4.33;;
4650;SDS011;2338;49.602;8.722;2023-12-20T12:08:48;6.93;;;2.80;;
4650;SDS011;2338;49.602;8.722;2023-12-20T12:11:34;10.07;;;2.93;;
4650;SDS011;2338;49.602;8.722;2023-12-20T12:14:20;13.93;;;3.30;;
4650;SDS011;2338;49.602;8.722;2023-12-20T12:17:09;7.75;;;2.72;;
4650;SDS011;2338;49.602;8.722;2023-12-20T12:20:01;7.57;;;3.03;;
4650;SDS011;2338;49.602;8.722;2023-12-20T12:22:58;5.80;;;3.67;;
4650;SDS011;2338;49.602;8.722;2023-12-20T12:25:44;13.80;;;3.27;;
4650;SDS011;2338;49.602;8.722;2023-12-20T12:28:30;11.90;;;3.30;;
4650;SDS011;2338;49.602;8.722;2023-12-20T12:31:16;7.40;;;3.33;;
4650;SDS011;2338;49.602;8.722;2023-12-20T12:34:02;12.80;;;3.83;;
4650;SDS011;2338;49.602;8.722;2023-12-20T12:36:48;6.15;;;2.63;;
4650;SDS011;2338;49.602;8.722;2023-12-20T12:39:35;12.33;;;3.53;;
4650;SDS011;2338;49.602;8.722;2023-12-20T12:42:21;6.93;;;3.80;;
4650;SDS011;2338;49.602;8.722;2023-12-20T12:45:13;11.13;;;3.80;;
4650;SDS011;2338;49.602;8.722;2023-12-20T12:47:59;15.53;;;3.17;;
4650;SDS011;2338;49.602;8.722;2023-12-20T12:50:45;8.13;;;3.10;;
4650;SDS011;2338;49.602;8.722;2023-12-20T12:53:31;8.43;;;4.00;;
4650;SDS011;2338;49.602;8.722;2023-12-20T12:56:17;8.60;;;3.40;;
4650;SDS011;2338;49.602;8.722;2023-12-20T12:59:03;9.00;;;4.20;;
4650;SDS011;2338;49.602;8.722;2023-12-20T13:01:49;15.60;;;4.00;;
4650;SDS011;2338;49.602;8.722;2023-12-20T13:04:35;9.80;;;4.00;;
4650;SDS011;2338;49.602;8.722;2023-12-20T13:07:21;9.90;;;4.60;;
4650;SDS011;2338;49.602;8.722;2023-12-20T13:10:06;13.83;;;4.37;;
4650;SDS011;2338;49.602;8.722;2023-12-20T13:12:53;6.67;;;3.23;;
4650;SDS011;2338;49.602;8.722;2023-12-20T13:15:39;9.73;;;3.67;;
4650;SDS011;2338;49.602;8.722;2023-12-20T13:18:25;12.95;;;3.90;;
4650;SDS011;2338;49.602;8.722;2023-12-20T13:21:10;9.87;;;4.10;;
4650;SDS011;2338;49.602;8.722;2023-12-20T13:23:56;12.47;;;3.47;;
4650;SDS011;2338;49.602;8.722;2023-12-20T13:26:42;7.73;;;3.90;;
4650;SDS011;2338;49.602;8.722;2023-12-20T13:29:29;9.32;;;3.60;;
4650;SDS011;2338;49.602;8.722;2023-12-20T13:32:14;15.13;;;3.70;;
4650;SDS011;2338;49.602;8.722;2023-12-20T13:35:00;9.40;;;3.83;;
4650;SDS011;2338;49.602;8.722;2023-12-20T13:37:46;13.17;;;3.83;;
4650;SDS011;2338;49.602;8.722;2023-12-20T13:40:31;10.93;;;3.40;;
4650;SDS011;2338;49.602;8.722;2023-12-20T13:43:17;17.87;;;4.33;;
4650;SDS011;2338;49.602;8.722;2023-12-20T13:46:06;13.57;;;3.70;;
4650;SDS011;2338;49.602;8.722;2023-12-20T13:48:51;9.93;;;4.20;;
4650;SDS011;2338;49.602;8.722;2023-12-20T13:51:37;9.73;;;3.70;;
4650;SDS011;2338;49.602;8.722;2023-12-20T13:54:22;6.95;;;3.47;;
4650;SDS011;2338;49.602;8.722;2023-12-20T13:57:08;10.97;;;4.10;;
4650;SDS011;2338;49.602;8.722;2023-12-20T13:59:54;10.50;;;4.20;;
4650;SDS011;2338;49.602;8.722;2023-12-20T14:02:42;10.38;;;3.10;;
4650;SDS011;2338;49.602;8.722;2023-12-20T14:05:27;13.10;;;3.78;;
4650;SDS011;2338;49.602;8.722;2023-12-20T14:08:13;15.68;;;4.13;;
4650;SDS011;2338;49.602;8.722;2023-12-20T14:10:59;8.50;;;3.53;;
4650;SDS011;2338;49.602;8.722;2023-12-20T14:13:45;6.82;;;4.45;;
4650;SDS011;2338;49.602;8.722;2023-12-20T14:16:31;9.50;;;4.03;;
4650;SDS011;2338;49.602;8.722;2023-12-20T14:19:18;12.07;;;4.03;;
4650;SDS011;2338;49.602;8.722;2023-12-20T14:22:03;9.50;;;4.70;;
4650;SDS011;2338;49.602;8.722;2023-12-20T14:24:50;14.77;;;4.13;;
4650;SDS011;2338;49.602;8.722;2023-12-20T14:27:35;8.48;;;4.38;;
4650;SDS011;2338;49.602;8.722;2023-12-20T14:30:21;10.93;;;3.60;;
4650;SDS011;2338;49.602;8.722;2023-12-20T14:33:07;12.15;;;4.65;;
4650;SDS011;2338;49.602;8.722;2023-12-20T14:35:55;18.30;;;4.25;;
4650;SDS011;2338;49.602;8.722;2023-12-20T14:38:40;15.60;;;4.18;;
4650;SDS011;2338;49.602;8.722;2023-12-20T14:41:26;7.43;;;3.70;;
4650;SDS011;2338;49.602;8.722;2023-12-20T14:44:12;11.57;;;3.97;;
4650;SDS011;2338;49.602;8.722;2023-12-20T14:46:57;6.20;;;3.27;;
4650;SDS011;2338;49.602;8.722;2023-12-20T14:49:46;10.27;;;3.97;;
4650;SDS011;2338;49.602;8.722;2023-12-20T14:52:34;20.43;;;5.10;;
4650;SDS011;2338;49.602;8.722;2023-12-20T14:55:20;10.73;;;3.87;;
4650;SDS011;2338;49.602;8.722;2023-12-20T14:58:06;12.20;;;3.70;;
4650;SDS011;2338;49.602;8.722;2023-12-20T15:00:52;9.70;;;5.10;;
4650;SDS011;2338;49.602;8.722;2023-12-20T15:03:39;8.13;;;3.60;;
4650;SDS011;2338;49.602;8.722;2023-12-20T15:06:25;10.43;;;3.50;;
4650;SDS011;2338;49.602;8.722;2023-12-20T15:09:12;9.47;;;3.20;;
4650;SDS011;2338;49.602;8.722;2023-12-20T15:11:58;10.90;;;3.90;;
4650;SDS011;2338;49.602;8.722;2023-12-20T15:14:44;6.00;;;3.10;;
4650;SDS011;2338;49.602;8.722;2023-12-20T15:17:30;16.27;;;4.32;;
4650;SDS011;2338;49.602;8.722;2023-12-20T15:20:16;12.30;;;4.80;;
4650;SDS011;2338;49.602;8.722;2023-12-20T15:23:02;20.65;;;6.85;;
4650;SDS011;2338;49.602;8.722;2023-12-20T15:25:49;11.90;;;4.50;;
4650;SDS011;2338;49.602;8.722;2023-12-20T15:28:36;7.35;;;3.20;;
4650;SDS011;2338;49.602;8.722;2023-12-20T15:31:22;20.53;;;5.60;;
4650;SDS011;2338;49.602;8.722;2023-12-20T15:34:10;10.60;;;3.13;;
4650;SDS011;2338;49.602;8.722;2023-12-20T15:36:56;8.85;;;3.38;;
4650;SDS011;2338;49.602;8.722;2023-12-20T15:39:46;16.10;;;4.05;;
4650;SDS011;2338;49.602;8.722;2023-12-20T15:42:35;14.57;;;3.50;;
4650;SDS011;2338;49.602;8.722;2023-12-20T15:45:22;12.43;;;3.30;;
4650;SDS011;2338;49.602;8.722;2023-12-20T15:48:08;12.32;;;4.40;;
4650;SDS011;2338;49.602;8.722;2023-12-20T15:50:57;12.95;;;4.10;;
4650;SDS011;2338;49.602;8.722;2023-12-20T15:53:43;7.07;;;3.38;;
4650;SDS011;2338;49.602;8.722;2023-12-20T15:56:28;10.93;;;3.53;;
4650;SDS011;2338;49.602;8.722;2023-12-20T15:59:15;6.43;;;2.88;;
4650;SDS011;2338;49.602;8.722;2023-12-20T16:02:01;9.05;;;3.40;;
4650;SDS011;2338;49.602;8.722;2023-12-20T16:04:47;6.88;;;2.78;;
4650;SDS011;2338;49.602;8.722;2023-12-20T16:07:33;18.60;;;3.63;;
4650;SDS011;2338;49.602;8.722;2023-12-20T16:10:18;12.93;;;4.43;;
4650;SDS011;2338;49.602;8.722;2023-12-20T16:13:04;8.10;;;3.33;;
4650;SDS011;2338;49.602;8.722;2023-12-20T16:15:51;11.83;;;3.33;;
4650;SDS011;2338;49.602;8.722;2023-12-20T16:18:38;13.33;;;4.00;;
4650;SDS011;2338;49.602;8.722;2023-12-20T16:21:23;11.75;;;3.72;;
4650;SDS011;2338;49.602;8.722;2023-12-20T16:24:09;9.97;;;3.60;;
4650;SDS011;2338;49.602;8.722;2023-12-20T16:26:54;11.77;;;3.63;;
4650;SDS011;2338;49.602;8.722;2023-12-20T16:29:40;9.10;;;3.65;;
4650;SDS011;2338;49.602;8.722;2023-12-20T16:32:27;8.45;;;4.55;;
4650;SDS011;2338;49.602;8.722;2023-12-20T16:35:12;5.47;;;3.50;;
4650;SDS011;2338;49.602;8.722;2023-12-20T16:37:58;9.27;;;3.67;;
4650;SDS011;2338;49.602;8.722;2023-12-20T16:40:44;8.83;;;2.67;;
4650;SDS011;2338;49.602;8.722;2023-12-20T16:43:29;13.33;;;3.30;;
4650;SDS011;2338;49.602;8.722;2023-12-20T16:46:15;9.83;;;4.17;;
4650;SDS011;2338;49.602;8.722;2023-12-20T16:49:02;9.60;;;3.60;;
4650;SDS011;2338;49.602;8.722;2023-12-20T16:51:51;10.13;;;5.07;;
4650;SDS011;2338;49.602;8.722;2023-12-20T16:54:40;12.90;;;4.43;;
4650;SDS011;2338;49.602;8.722;2023-12-20T16:57:26;12.40;;;3.47;;
4650;SDS011;2338;49.602;8.722;2023-12-20T17:00:12;11.83;;;3.67;;
4650;SDS011;2338;49.602;8.722;2023-12-20T17:02:59;15.90;;;3.80;;
4650;SDS011;2338;49.602;8.722;2023-12-20T17:05:46;8.63;;;3.10;;
4650;SDS011;2338;49.602;8.722;2023-12-20T17:08:32;14.13;;;3.57;;